sensor_id;sensor_type;location;lat;lon;timestamp;P1;durP1;ratioP1;P2;durP2;ratioP2
10452;SDS011;5274;51.992;8.518;2023-05-10T00:01:51;12.57;;;11.30;;
10452;SDS011;5274;51.992;8.518;2023-05-10T00:04:17;12.18;;;10.80;;
10452;SDS011;5274;51.992;8.518;2023-05-10T00:06:43;11.43;;;10.43;;
10452;SDS011;5274;51.992;8.518;2023-05-10T00:09:09;12.43;;;11.23;;
10452;SDS011;5274;51.992;8.518;2023-05-10T00:11:35;12.25;;;10.95;;
10452;SDS011;5274;51.992;8.518;2023-05-10T00:14:00;13.13;;;11.80;;
10452;SDS011;5274;51.992;8.518;2023-05-10T00:16:26;11.77;;;10.65;;
10452;SDS011;5274;51.992;8.518;2023-05-10T00:18:52;12.27;;;11.25;;
10452;SDS011;5274;51.992;8.518;2023-05-10T00:21:18;13.00;;;11.85;;
10452;SDS011;5274;51.992;8.518;2023-05-10T00:23:44;14.02;;;12.82;;
10452;SDS011;5274;51.992;8.518;2023-05-10T00:26:10;11.73;;;10.63;;
10452;SDS011;5274;51.992;8.518;2023-05-10T00:28:36;11.50;;;10.35;;
10452;SDS011;5274;51.992;8.518;2023-05-10T00:31:02;13.55;;;12.15;;
10452;SDS011;5274;51.992;8.518;2023-05-10T00:33:28;12.70;;;11.60;;
10452;SDS011;5274;51.992;8.518;2023-05-10T00:35:54;13.05;;;11.85;;
10452;SDS011;5274;51.992;8.518;2023-05-10T00:38:20;12.98;;;11.85;;
10452;SDS011;5274;51.992;8.518;2023-05-10T00:40:46;16.20;;;14.90;;
10452;SDS011;5274;51.992;8.518;2023-05-10T00:43:12;11.75;;;10.63;;
10452;SDS011;5274;51.992;8.518;2023-05-10T00:45:39;13.45;;;12.25;;
10452;SDS011;5274;51.992;8.518;2023-05-10T00:48:05;12.85;;;11.73;;
10452;SDS011;5274;51.992;8.518;2023-05-10T00:50:31;12.57;;;11.27;;
10452;SDS011;5274;51.992;8.518;2023-05-10T00:52:58;13.00;;;11.70;;
10452;SDS011;5274;51.992;8.518;2023-05-10T00:55:25;12.45;;;11.35;;
10452;SDS011;5274;51.992;8.518;2023-05-10T00:57:52;12.80;;;11.60;;
10452;SDS011;5274;51.992;8.518;2023-05-10T01:00:18;11.35;;;10.25;;
10452;SDS011;5274;51.992;8.518;2023-05-10T01:02:44;10.95;;;9.85;;
10452;SDS011;5274;51.992;8.518;2023-05-10T01:05:11;11.70;;;10.60;;
10452;SDS011;5274;51.992;8.518;2023-05-10T01:07:37;10.57;;;9.63;;
10452;SDS011;5274;51.992;8.518;2023-05-10T01:10:03;11.13;;;10.13;;
10452;SDS011;5274;51.992;8.518;2023-05-10T01:12:30;10.55;;;9.65;;
10452;SDS011;5274;51.992;8.518;2023-05-10T01:14:56;10.43;;;9.52;;
10452;SDS011;5274;51.992;8.518;2023-05-10T01:17:23;10.68;;;9.77;;
10452;SDS011;5274;51.992;8.518;2023-05-10T01:19:48;10.18;;;9.27;;
10452;SDS011;5274;51.992;8.518;2023-05-10T01:22:39;9.88;;;9.07;;
10452;SDS011;5274;51.992;8.518;2023-05-10T01:33:19;9.90;;;8.85;;
10452;SDS011;5274;51.992;8.518;2023-05-10T01:35:51;9.18;;;8.38;;
10452;SDS011;5274;51.992;8.518;2023-05-10T01:43:21;8.27;;;7.03;;
10452;SDS011;5274;51.992;8.518;2023-05-10T01:45:55;11.57;;;10.68;;
10452;SDS011;5274;51.992;8.518;2023-05-10T01:48:22;10.07;;;9.13;;
10452;SDS011;5274;51.992;8.518;2023-05-10T01:50:48;10.75;;;9.70;;
10452;SDS011;5274;51.992;8.518;2023-05-10T01:53:17;10.73;;;9.73;;
10452;SDS011;5274;51.992;8.518;2023-05-10T01:55:45;10.45;;;9.32;;
10452;SDS011;5274;51.992;8.518;2023-05-10T01:58:22;11.40;;;10.30;;
10452;SDS011;5274;51.992;8.518;2023-05-10T02:00:49;11.38;;;10.25;;
10452;SDS011;5274;51.992;8.518;2023-05-10T02:03:16;10.40;;;9.40;;
10452;SDS011;5274;51.992;8.518;2023-05-10T02:05:44;10.52;;;9.65;;
10452;SDS011;5274;51.992;8.518;2023-05-10T02:08:11;11.23;;;10.32;;
10452;SDS011;5274;51.992;8.518;2023-05-10T02:10:39;12.18;;;10.98;;
10452;SDS011;5274;51.992;8.518;2023-05-10T02:13:05;9.88;;;9.07;;
10452;SDS011;5274;51.992;8.518;2023-05-10T02:15:32;10.32;;;9.40;;
10452;SDS011;5274;51.992;8.518;2023-05-10T02:17:58;9.18;;;8.38;;
10452;SDS011;5274;51.992;8.518;2023-05-10T02:20:25;9.70;;;8.80;;
10452;SDS011;5274;51.992;8.518;2023-05-10T02:22:52;10.45;;;9.55;;
10452;SDS011;5274;51.992;8.518;2023-05-10T02:25:19;10.18;;;9.27;;
10452;SDS011;5274;51.992;8.518;2023-05-10T02:27:46;9.88;;;8.88;;
10452;SDS011;5274;51.992;8.518;2023-05-10T02:30:13;9.60;;;8.80;;
10452;SDS011;5274;51.992;8.518;2023-05-10T02:32:39;10.55;;;9.65;;
10452;SDS011;5274;51.992;8.518;2023-05-10T02:35:05;10.70;;;9.70;;
10452;SDS011;5274;51.992;8.518;2023-05-10T02:37:32;10.43;;;9.43;;
10452;SDS011;5274;51.992;8.518;2023-05-10T02:39:59;10.07;;;9.18;;
10452;SDS011;5274;51.992;8.518;2023-05-10T02:42:27;11.32;;;10.23;;
10452;SDS011;5274;51.992;8.518;2023-05-10T02:44:56;11.65;;;10.55;;
10452;SDS011;5274;51.992;8.518;2023-05-10T02:47:25;10.25;;;9.32;;
10452;SDS011;5274;51.992;8.518;2023-05-10T02:49:51;10.88;;;9.30;;
10452;SDS011;5274;51.992;8.518;2023-05-10T02:52:19;11.15;;;10.05;;
10452;SDS011;5274;51.992;8.518;2023-05-10T02:54:48;12.63;;;10.43;;
10452;SDS011;5274;51.992;8.518;2023-05-10T02:57:16;11.57;;;10.40;;
10452;SDS011;5274;51.992;8.518;2023-05-10T02:59:44;11.88;;;10.68;;
10452;SDS011;5274;51.992;8.518;2023-05-10T03:02:10;14.20;;;11.80;;
10452;SDS011;5274;51.992;8.518;2023-05-10T03:04:36;15.05;;;12.27;;
10452;SDS011;5274;51.992;8.518;2023-05-10T03:07:02;14.65;;;11.73;;
10452;SDS011;5274;51.992;8.518;2023-05-10T03:09:28;14.25;;;12.20;;
10452;SDS011;5274;51.992;8.518;2023-05-10T03:11:56;14.02;;;11.98;;
10452;SDS011;5274;51.992;8.518;2023-05-10T03:17:13;14.45;;;12.18;;
10452;SDS011;5274;51.992;8.518;2023-05-10T03:20:03;14.05;;;12.25;;
10452;SDS011;5274;51.992;8.518;2023-05-10T03:22:31;14.40;;;12.75;;
10452;SDS011;5274;51.992;8.518;2023-05-10T03:24:57;15.88;;;12.40;;
10452;SDS011;5274;51.992;8.518;2023-05-10T03:27:26;14.93;;;12.18;;
10452;SDS011;5274;51.992;8.518;2023-05-10T03:29:52;15.95;;;12.90;;
10452;SDS011;5274;51.992;8.518;2023-05-10T03:32:19;13.43;;;11.88;;
10452;SDS011;5274;51.992;8.518;2023-05-10T03:34:45;14.60;;;12.07;;
10452;SDS011;5274;51.992;8.518;2023-05-10T03:37:11;16.55;;;12.25;;
10452;SDS011;5274;51.992;8.518;2023-05-10T03:39:37;12.80;;;10.52;;
10452;SDS011;5274;51.992;8.518;2023-05-10T03:42:03;11.70;;;10.13;;
10452;SDS011;5274;51.992;8.518;2023-05-10T03:44:29;11.80;;;10.63;;
10452;SDS011;5274;51.992;8.518;2023-05-10T03:46:54;11.32;;;9.52;;
10452;SDS011;5274;51.992;8.518;2023-05-10T03:49:21;10.02;;;9.07;;
10452;SDS011;5274;51.992;8.518;2023-05-10T03:51:47;10.38;;;9.35;;
10452;SDS011;5274;51.992;8.518;2023-05-10T03:54:13;10.32;;;9.32;;
10452;SDS011;5274;51.992;8.518;2023-05-10T03:56:39;11.48;;;10.18;;
10452;SDS011;5274;51.992;8.518;2023-05-10T03:59:05;8.90;;;8.10;;
10452;SDS011;5274;51.992;8.518;2023-05-10T04:01:32;6.63;;;6.07;;
10452;SDS011;5274;51.992;8.518;2023-05-10T04:03:58;6.32;;;5.90;;
10452;SDS011;5274;51.992;8.518;2023-05-10T04:06:25;5.57;;;5.18;;
10452;SDS011;5274;51.992;8.518;2023-05-10T04:08:50;5.78;;;5.38;;
10452;SDS011;5274;51.992;8.518;2023-05-10T04:11:16;5.30;;;5.00;;
10452;SDS011;5274;51.992;8.518;2023-05-10T04:13:42;4.93;;;4.63;;
10452;SDS011;5274;51.992;8.518;2023-05-10T04:16:08;5.78;;;4.60;;
10452;SDS011;5274;51.992;8.518;2023-05-10T04:18:34;4.90;;;4.60;;
10452;SDS011;5274;51.992;8.518;2023-05-10T04:21:00;4.97;;;4.57;;
10452;SDS011;5274;51.992;8.518;2023-05-10T04:23:27;5.90;;;5.50;;
10452;SDS011;5274;51.992;8.518;2023-05-10T04:25:58;4.90;;;4.60;;
10452;SDS011;5274;51.992;8.518;2023-05-10T04:28:24;5.82;;;5.32;;
10452;SDS011;5274;51.992;8.518;2023-05-10T04:30:50;5.95;;;5.55;;
10452;SDS011;5274;51.992;8.518;2023-05-10T04:33:16;5.38;;;5.00;;
10452;SDS011;5274;51.992;8.518;2023-05-10T04:35:42;5.68;;;5.18;;
10452;SDS011;5274;51.992;8.518;2023-05-10T04:38:09;6.95;;;6.45;;
10452;SDS011;5274;51.992;8.518;2023-05-10T04:40:35;7.57;;;6.97;;
10452;SDS011;5274;51.992;8.518;2023-05-10T04:43:01;7.10;;;6.60;;
10452;SDS011;5274;51.992;8.518;2023-05-10T04:45:27;8.18;;;7.68;;
10452;SDS011;5274;51.992;8.518;2023-05-10T04:47:53;8.15;;;7.65;;
10452;SDS011;5274;51.992;8.518;2023-05-10T04:50:19;7.25;;;6.72;;
10452;SDS011;5274;51.992;8.518;2023-05-10T04:52:45;7.68;;;6.97;;
10452;SDS011;5274;51.992;8.518;2023-05-10T04:55:11;7.50;;;7.00;;
10452;SDS011;5274;51.992;8.518;2023-05-10T04:57:36;7.55;;;7.05;;
10452;SDS011;5274;51.992;8.518;2023-05-10T05:00:02;7.90;;;7.40;;
10452;SDS011;5274;51.992;8.518;2023-05-10T05:02:29;7.60;;;7.10;;
10452;SDS011;5274;51.992;8.518;2023-05-10T05:04:55;7.80;;;7.20;;
10452;SDS011;5274;51.992;8.518;2023-05-10T05:07:22;7.43;;;6.93;;
10452;SDS011;5274;51.992;8.518;2023-05-10T05:09:48;7.13;;;6.63;;
10452;SDS011;5274;51.992;8.518;2023-05-10T05:12:14;8.07;;;7.47;;
10452;SDS011;5274;51.992;8.518;2023-05-10T05:14:40;7.70;;;7.10;;
10452;SDS011;5274;51.992;8.518;2023-05-10T05:17:06;7.75;;;7.25;;
10452;SDS011;5274;51.992;8.518;2023-05-10T05:19:33;7.90;;;7.40;;
10452;SDS011;5274;51.992;8.518;2023-05-10T05:21:58;8.13;;;7.53;;
10452;SDS011;5274;51.992;8.518;2023-05-10T05:24:24;7.85;;;7.35;;
10452;SDS011;5274;51.992;8.518;2023-05-10T05:26:50;8.82;;;8.23;;
10452;SDS011;5274;51.992;8.518;2023-05-10T05:29:16;7.88;;;7.38;;
10452;SDS011;5274;51.992;8.518;2023-05-10T05:31:42;8.00;;;7.50;;
10452;SDS011;5274;51.992;8.518;2023-05-10T05:34:08;8.38;;;7.80;;
10452;SDS011;5274;51.992;8.518;2023-05-10T05:36:35;7.10;;;6.60;;
10452;SDS011;5274;51.992;8.518;2023-05-10T05:39:03;6.53;;;6.13;;
10452;SDS011;5274;51.992;8.518;2023-05-10T05:41:29;6.97;;;6.47;;
10452;SDS011;5274;51.992;8.518;2023-05-10T05:43:55;6.70;;;6.20;;
10452;SDS011;5274;51.992;8.518;2023-05-10T05:46:21;6.13;;;5.63;;
10452;SDS011;5274;51.992;8.518;2023-05-10T05:48:46;6.30;;;5.80;;
10452;SDS011;5274;51.992;8.518;2023-05-10T05:51:12;6.88;;;6.38;;
10452;SDS011;5274;51.992;8.518;2023-05-10T05:53:39;6.85;;;6.35;;
10452;SDS011;5274;51.992;8.518;2023-05-10T05:56:05;7.10;;;6.20;;
10452;SDS011;5274;51.992;8.518;2023-05-10T05:58:31;5.63;;;5.22;;
10452;SDS011;5274;51.992;8.518;2023-05-10T06:00:57;5.90;;;5.50;;
10452;SDS011;5274;51.992;8.518;2023-05-10T06:03:22;5.13;;;4.55;;
10452;SDS011;5274;51.992;8.518;2023-05-10T06:05:48;5.32;;;4.82;;
10452;SDS011;5274;51.992;8.518;2023-05-10T06:08:14;5.50;;;5.20;;
10452;SDS011;5274;51.992;8.518;2023-05-10T06:10:40;5.50;;;5.10;;
10452;SDS011;5274;51.992;8.518;2023-05-10T06:13:06;6.20;;;5.78;;
10452;SDS011;5274;51.992;8.518;2023-05-10T06:15:32;5.95;;;5.55;;
10452;SDS011;5274;51.992;8.518;2023-05-10T06:17:58;5.38;;;4.97;;
10452;SDS011;5274;51.992;8.518;2023-05-10T06:20:24;5.47;;;5.07;;
10452;SDS011;5274;51.992;8.518;2023-05-10T06:22:50;5.90;;;5.50;;
10452;SDS011;5274;51.992;8.518;2023-05-10T06:25:16;6.07;;;5.60;;
10452;SDS011;5274;51.992;8.518;2023-05-10T06:27:43;6.78;;;6.20;;
10452;SDS011;5274;51.992;8.518;2023-05-10T06:30:09;6.53;;;6.13;;
10452;SDS011;5274;51.992;8.518;2023-05-10T06:32:36;6.65;;;6.15;;
10452;SDS011;5274;51.992;8.518;2023-05-10T06:35:02;6.00;;;5.53;;
10452;SDS011;5274;51.992;8.518;2023-05-10T06:37:28;6.65;;;6.15;;
10452;SDS011;5274;51.992;8.518;2023-05-10T06:39:54;6.95;;;6.40;;
10452;SDS011;5274;51.992;8.518;2023-05-10T06:42:20;6.68;;;6.28;;
10452;SDS011;5274;51.992;8.518;2023-05-10T06:44:45;6.72;;;6.32;;
10452;SDS011;5274;51.992;8.518;2023-05-10T06:47:12;7.30;;;6.60;;
10452;SDS011;5274;51.992;8.518;2023-05-10T06:49:38;7.38;;;6.88;;
10452;SDS011;5274;51.992;8.518;2023-05-10T06:52:04;8.55;;;7.85;;
10452;SDS011;5274;51.992;8.518;2023-05-10T06:54:30;8.57;;;7.97;;
10452;SDS011;5274;51.992;8.518;2023-05-10T06:56:56;8.70;;;8.13;;
10452;SDS011;5274;51.992;8.518;2023-05-10T06:59:22;7.40;;;6.93;;
10452;SDS011;5274;51.992;8.518;2023-05-10T07:01:49;7.60;;;7.10;;
10452;SDS011;5274;51.992;8.518;2023-05-10T07:04:14;7.07;;;6.57;;
10452;SDS011;5274;51.992;8.518;2023-05-10T07:06:40;7.72;;;7.22;;
10452;SDS011;5274;51.992;8.518;2023-05-10T07:09:06;7.38;;;6.90;;
10452;SDS011;5274;51.992;8.518;2023-05-10T07:11:32;7.47;;;6.72;;
10452;SDS011;5274;51.992;8.518;2023-05-10T07:13:58;6.97;;;6.38;;
10452;SDS011;5274;51.992;8.518;2023-05-10T07:16:24;8.43;;;7.63;;
10452;SDS011;5274;51.992;8.518;2023-05-10T07:18:50;7.90;;;6.97;;
10452;SDS011;5274;51.992;8.518;2023-05-10T07:21:17;8.70;;;8.00;;
10452;SDS011;5274;51.992;8.518;2023-05-10T07:23:43;8.65;;;7.93;;
10452;SDS011;5274;51.992;8.518;2023-05-10T07:26:09;8.80;;;7.90;;
10452;SDS011;5274;51.992;8.518;2023-05-10T07:28:36;8.75;;;7.95;;
10452;SDS011;5274;51.992;8.518;2023-05-10T07:31:03;7.90;;;7.05;;
10452;SDS011;5274;51.992;8.518;2023-05-10T07:33:29;7.80;;;6.95;;
10452;SDS011;5274;51.992;8.518;2023-05-10T07:35:56;8.88;;;8.07;;
10452;SDS011;5274;51.992;8.518;2023-05-10T07:38:22;8.10;;;7.40;;
10452;SDS011;5274;51.992;8.518;2023-05-10T07:40:48;10.05;;;9.00;;
10452;SDS011;5274;51.992;8.518;2023-05-10T07:43:14;10.68;;;8.57;;
10452;SDS011;5274;51.992;8.518;2023-05-10T07:45:40;9.02;;;8.18;;
10452;SDS011;5274;51.992;8.518;2023-05-10T07:48:06;10.82;;;9.73;;
10452;SDS011;5274;51.992;8.518;2023-05-10T07:50:32;9.88;;;8.85;;
10452;SDS011;5274;51.992;8.518;2023-05-10T07:52:58;10.90;;;9.77;;
10452;SDS011;5274;51.992;8.518;2023-05-10T07:55:24;11.63;;;8.93;;
10452;SDS011;5274;51.992;8.518;2023-05-10T07:57:51;14.45;;;11.18;;
10452;SDS011;5274;51.992;8.518;2023-05-10T08:00:17;14.52;;;11.23;;
10452;SDS011;5274;51.992;8.518;2023-05-10T08:02:43;13.15;;;10.82;;
10452;SDS011;5274;51.992;8.518;2023-05-10T08:05:09;14.15;;;11.07;;
10452;SDS011;5274;51.992;8.518;2023-05-10T08:07:35;13.43;;;11.32;;
10452;SDS011;5274;51.992;8.518;2023-05-10T08:10:02;16.02;;;11.18;;
10452;SDS011;5274;51.992;8.518;2023-05-10T08:12:28;13.50;;;10.93;;
10452;SDS011;5274;51.992;8.518;2023-05-10T08:14:54;19.63;;;11.85;;
10452;SDS011;5274;51.992;8.518;2023-05-10T08:17:20;14.48;;;10.95;;
10452;SDS011;5274;51.992;8.518;2023-05-10T08:19:46;14.60;;;10.60;;
10452;SDS011;5274;51.992;8.518;2023-05-10T08:22:12;17.95;;;12.30;;
10452;SDS011;5274;51.992;8.518;2023-05-10T08:24:37;12.88;;;10.57;;
10452;SDS011;5274;51.992;8.518;2023-05-10T08:27:07;15.80;;;11.77;;
10452;SDS011;5274;51.992;8.518;2023-05-10T08:29:33;16.20;;;12.73;;
10452;SDS011;5274;51.992;8.518;2023-05-10T08:31:59;14.30;;;11.73;;
10452;SDS011;5274;51.992;8.518;2023-05-10T08:34:26;18.38;;;12.38;;
10452;SDS011;5274;51.992;8.518;2023-05-10T08:36:52;16.45;;;11.70;;
10452;SDS011;5274;51.992;8.518;2023-05-10T08:39:18;18.35;;;13.75;;
10452;SDS011;5274;51.992;8.518;2023-05-10T08:41:44;18.83;;;13.95;;
10452;SDS011;5274;51.992;8.518;2023-05-10T08:44:10;17.45;;;12.93;;
10452;SDS011;5274;51.992;8.518;2023-05-10T08:46:36;18.77;;;13.02;;
10452;SDS011;5274;51.992;8.518;2023-05-10T08:49:04;15.43;;;12.65;;
10452;SDS011;5274;51.992;8.518;2023-05-10T08:51:35;20.73;;;13.73;;
10452;SDS011;5274;51.992;8.518;2023-05-10T08:54:05;18.67;;;14.30;;
10452;SDS011;5274;51.992;8.518;2023-05-10T08:56:31;18.73;;;14.02;;
10452;SDS011;5274;51.992;8.518;2023-05-10T08:58:57;23.60;;;14.15;;
10452;SDS011;5274;51.992;8.518;2023-05-10T09:01:23;22.27;;;14.18;;
10452;SDS011;5274;51.992;8.518;2023-05-10T09:03:49;22.50;;;14.18;;
10452;SDS011;5274;51.992;8.518;2023-05-10T09:06:16;21.38;;;15.55;;
10452;SDS011;5274;51.992;8.518;2023-05-10T09:08:42;21.92;;;14.25;;
10452;SDS011;5274;51.992;8.518;2023-05-10T09:11:09;25.20;;;16.85;;
10452;SDS011;5274;51.992;8.518;2023-05-10T09:13:35;22.35;;;16.02;;
10452;SDS011;5274;51.992;8.518;2023-05-10T09:16:05;22.52;;;16.58;;
10452;SDS011;5274;51.992;8.518;2023-05-10T09:18:31;25.92;;;17.15;;
10452;SDS011;5274;51.992;8.518;2023-05-10T09:20:57;24.63;;;17.52;;
10452;SDS011;5274;51.992;8.518;2023-05-10T09:23:22;23.67;;;16.08;;
10452;SDS011;5274;51.992;8.518;2023-05-10T09:26:03;26.23;;;17.15;;
10452;SDS011;5274;51.992;8.518;2023-05-10T09:28:32;24.98;;;17.95;;
10452;SDS011;5274;51.992;8.518;2023-05-10T09:30:58;26.67;;;18.00;;
10452;SDS011;5274;51.992;8.518;2023-05-10T09:33:24;25.77;;;18.85;;
10452;SDS011;5274;51.992;8.518;2023-05-10T09:35:51;23.45;;;16.65;;
10452;SDS011;5274;51.992;8.518;2023-05-10T09:38:17;26.48;;;16.80;;
10452;SDS011;5274;51.992;8.518;2023-05-10T09:40:50;24.23;;;16.77;;
10452;SDS011;5274;51.992;8.518;2023-05-10T09:43:19;24.13;;;16.17;;
10452;SDS011;5274;51.992;8.518;2023-05-10T09:45:45;23.80;;;15.45;;
10452;SDS011;5274;51.992;8.518;2023-05-10T09:48:14;22.92;;;17.48;;
10452;SDS011;5274;51.992;8.518;2023-05-10T09:50:40;35.63;;;32.50;;
10452;SDS011;5274;51.992;8.518;2023-05-10T09:53:07;36.75;;;33.65;;
10452;SDS011;5274;51.992;8.518;2023-05-10T09:55:40;36.88;;;33.60;;
10452;SDS011;5274;51.992;8.518;2023-05-10T09:58:06;35.60;;;32.80;;
10452;SDS011;5274;51.992;8.518;2023-05-10T10:00:39;36.95;;;34.03;;
10452;SDS011;5274;51.992;8.518;2023-05-10T10:03:05;35.95;;;33.05;;
10452;SDS011;5274;51.992;8.518;2023-05-10T10:05:32;33.63;;;31.02;;
10452;SDS011;5274;51.992;8.518;2023-05-10T10:07:58;46.83;;;42.95;;
10452;SDS011;5274;51.992;8.518;2023-05-10T10:10:25;50.25;;;46.45;;
10452;SDS011;5274;51.992;8.518;2023-05-10T10:12:51;49.28;;;45.40;;
10452;SDS011;5274;51.992;8.518;2023-05-10T10:15:17;48.90;;;45.40;;
10452;SDS011;5274;51.992;8.518;2023-05-10T10:17:43;52.67;;;48.80;;
10452;SDS011;5274;51.992;8.518;2023-05-10T10:20:10;53.20;;;49.20;;
10452;SDS011;5274;51.992;8.518;2023-05-10T10:22:36;51.30;;;47.30;;
10452;SDS011;5274;51.992;8.518;2023-05-10T10:25:02;55.22;;;51.13;;
10452;SDS011;5274;51.992;8.518;2023-05-10T10:27:37;54.55;;;50.50;;
10452;SDS011;5274;51.992;8.518;2023-05-10T10:30:25;56.35;;;52.35;;
10452;SDS011;5274;51.992;8.518;2023-05-10T10:35:27;17.70;;;15.98;;
10452;SDS011;5274;51.992;8.518;2023-05-10T10:37:53;16.98;;;15.38;;
10452;SDS011;5274;51.992;8.518;2023-05-10T10:40:23;17.13;;;15.45;;
10452;SDS011;5274;51.992;8.518;2023-05-10T10:42:50;17.73;;;15.93;;
10452;SDS011;5274;51.992;8.518;2023-05-10T10:45:16;17.02;;;15.35;;
10452;SDS011;5274;51.992;8.518;2023-05-10T10:47:42;16.63;;;14.93;;
10452;SDS011;5274;51.992;8.518;2023-05-10T10:50:09;15.98;;;14.40;;
10452;SDS011;5274;51.992;8.518;2023-05-10T10:52:41;17.83;;;14.82;;
10452;SDS011;5274;51.992;8.518;2023-05-10T11:02:47;14.02;;;12.63;;
10452;SDS011;5274;51.992;8.518;2023-05-10T11:07:52;11.18;;;10.20;;
10452;SDS011;5274;51.992;8.518;2023-05-10T11:10:19;9.70;;;8.90;;
10452;SDS011;5274;51.992;8.518;2023-05-10T11:13:01;10.43;;;9.30;;
10452;SDS011;5274;51.992;8.518;2023-05-10T11:15:34;10.27;;;9.30;;
10452;SDS011;5274;51.992;8.518;2023-05-10T11:21:06;11.98;;;10.82;;
10452;SDS011;5274;51.992;8.518;2023-05-10T11:26:13;13.23;;;11.82;;
10452;SDS011;5274;51.992;8.518;2023-05-10T11:28:46;13.43;;;12.32;;
10452;SDS011;5274;51.992;8.518;2023-05-10T11:31:13;13.88;;;12.43;;
10452;SDS011;5274;51.992;8.518;2023-05-10T11:33:46;12.98;;;12.00;;
10452;SDS011;5274;51.992;8.518;2023-05-10T11:36:13;12.82;;;11.93;;
10452;SDS011;5274;51.992;8.518;2023-05-10T11:38:40;14.20;;;13.07;;
10452;SDS011;5274;51.992;8.518;2023-05-10T11:41:07;17.83;;;13.05;;
10452;SDS011;5274;51.992;8.518;2023-05-10T11:43:34;14.15;;;12.75;;
10452;SDS011;5274;51.992;8.518;2023-05-10T11:46:01;13.82;;;12.68;;
10452;SDS011;5274;51.992;8.518;2023-05-10T11:48:29;12.95;;;11.82;;
10452;SDS011;5274;51.992;8.518;2023-05-10T11:50:55;15.23;;;13.93;;
10452;SDS011;5274;51.992;8.518;2023-05-10T11:53:22;13.93;;;12.70;;
10452;SDS011;5274;51.992;8.518;2023-05-10T11:55:48;13.80;;;12.63;;
10452;SDS011;5274;51.992;8.518;2023-05-10T11:58:14;13.85;;;12.75;;
10452;SDS011;5274;51.992;8.518;2023-05-10T12:00:40;13.93;;;12.52;;
10452;SDS011;5274;51.992;8.518;2023-05-10T12:03:06;13.40;;;12.00;;
10452;SDS011;5274;51.992;8.518;2023-05-10T12:05:32;12.95;;;11.75;;
10452;SDS011;5274;51.992;8.518;2023-05-10T12:08:11;14.57;;;12.48;;
10452;SDS011;5274;51.992;8.518;2023-05-10T12:10:37;15.60;;;12.88;;
10452;SDS011;5274;51.992;8.518;2023-05-10T12:13:03;18.85;;;13.10;;
10452;SDS011;5274;51.992;8.518;2023-05-10T12:15:30;15.93;;;13.25;;
10452;SDS011;5274;51.992;8.518;2023-05-10T12:17:56;20.83;;;14.02;;
10452;SDS011;5274;51.992;8.518;2023-05-10T12:20:23;19.30;;;13.70;;
10452;SDS011;5274;51.992;8.518;2023-05-10T12:22:50;17.45;;;14.65;;
10452;SDS011;5274;51.992;8.518;2023-05-10T12:25:17;17.45;;;12.75;;
10452;SDS011;5274;51.992;8.518;2023-05-10T12:27:50;16.85;;;13.25;;
10452;SDS011;5274;51.992;8.518;2023-05-10T12:30:22;15.52;;;12.68;;
10452;SDS011;5274;51.992;8.518;2023-05-10T12:32:49;18.15;;;12.80;;
10452;SDS011;5274;51.992;8.518;2023-05-10T12:35:15;19.13;;;13.70;;
10452;SDS011;5274;51.992;8.518;2023-05-10T12:37:42;18.70;;;13.38;;
10452;SDS011;5274;51.992;8.518;2023-05-10T12:40:08;16.42;;;13.85;;
10452;SDS011;5274;51.992;8.518;2023-05-10T12:42:36;16.88;;;12.55;;
10452;SDS011;5274;51.992;8.518;2023-05-10T12:45:02;18.23;;;13.13;;
10452;SDS011;5274;51.992;8.518;2023-05-10T12:47:28;20.70;;;13.80;;
10452;SDS011;5274;51.992;8.518;2023-05-10T12:49:54;21.33;;;14.43;;
10452;SDS011;5274;51.992;8.518;2023-05-10T12:52:20;19.25;;;14.95;;
10452;SDS011;5274;51.992;8.518;2023-05-10T12:54:46;16.90;;;13.65;;
10452;SDS011;5274;51.992;8.518;2023-05-10T12:57:12;16.08;;;13.75;;
10452;SDS011;5274;51.992;8.518;2023-05-10T12:59:38;18.90;;;14.38;;
10452;SDS011;5274;51.992;8.518;2023-05-10T13:02:05;18.42;;;16.58;;
10452;SDS011;5274;51.992;8.518;2023-05-10T13:04:31;19.08;;;15.13;;
10452;SDS011;5274;51.992;8.518;2023-05-10T13:06:57;16.27;;;14.63;;
10452;SDS011;5274;51.992;8.518;2023-05-10T13:09:26;17.10;;;15.23;;
10452;SDS011;5274;51.992;8.518;2023-05-10T13:11:54;18.27;;;16.00;;
10452;SDS011;5274;51.992;8.518;2023-05-10T13:14:20;18.33;;;16.45;;
10452;SDS011;5274;51.992;8.518;2023-05-10T13:16:46;17.02;;;15.40;;
10452;SDS011;5274;51.992;8.518;2023-05-10T13:19:15;18.67;;;16.77;;
10452;SDS011;5274;51.992;8.518;2023-05-10T13:21:42;19.15;;;17.30;;
10452;SDS011;5274;51.992;8.518;2023-05-10T13:24:09;19.90;;;17.88;;
10452;SDS011;5274;51.992;8.518;2023-05-10T13:26:35;19.45;;;17.58;;
10452;SDS011;5274;51.992;8.518;2023-05-10T13:29:01;19.40;;;17.65;;
10452;SDS011;5274;51.992;8.518;2023-05-10T13:31:28;14.90;;;13.45;;
10452;SDS011;5274;51.992;8.518;2023-05-10T13:33:54;15.70;;;14.40;;
10452;SDS011;5274;51.992;8.518;2023-05-10T13:36:20;18.30;;;15.77;;
10452;SDS011;5274;51.992;8.518;2023-05-10T13:38:46;18.52;;;15.50;;
10452;SDS011;5274;51.992;8.518;2023-05-10T13:41:12;16.00;;;13.45;;
10452;SDS011;5274;51.992;8.518;2023-05-10T13:43:38;17.23;;;13.82;;
10452;SDS011;5274;51.992;8.518;2023-05-10T13:46:04;14.77;;;13.10;;
10452;SDS011;5274;51.992;8.518;2023-05-10T13:48:30;14.98;;;13.43;;
10452;SDS011;5274;51.992;8.518;2023-05-10T13:50:56;14.50;;;11.90;;
10452;SDS011;5274;51.992;8.518;2023-05-10T13:53:22;15.88;;;12.88;;
10452;SDS011;5274;51.992;8.518;2023-05-10T13:55:48;13.55;;;10.95;;
10452;SDS011;5274;51.992;8.518;2023-05-10T13:58:14;12.05;;;10.70;;
10452;SDS011;5274;51.992;8.518;2023-05-10T14:00:40;13.00;;;11.70;;
10452;SDS011;5274;51.992;8.518;2023-05-10T14:03:06;11.02;;;10.02;;
10452;SDS011;5274;51.992;8.518;2023-05-10T14:05:33;11.93;;;10.73;;
10452;SDS011;5274;51.992;8.518;2023-05-10T14:07:59;13.18;;;11.70;;
10452;SDS011;5274;51.992;8.518;2023-05-10T14:10:25;13.85;;;12.40;;
10452;SDS011;5274;51.992;8.518;2023-05-10T14:12:51;12.63;;;11.32;;
10452;SDS011;5274;51.992;8.518;2023-05-10T14:15:17;15.20;;;13.73;;
10452;SDS011;5274;51.992;8.518;2023-05-10T14:17:43;15.00;;;12.18;;
10452;SDS011;5274;51.992;8.518;2023-05-10T14:20:09;12.85;;;11.55;;
10452;SDS011;5274;51.992;8.518;2023-05-10T14:22:35;11.45;;;10.25;;
10452;SDS011;5274;51.992;8.518;2023-05-10T14:25:01;13.50;;;12.15;;
10452;SDS011;5274;51.992;8.518;2023-05-10T14:27:27;13.27;;;11.85;;
10452;SDS011;5274;51.992;8.518;2023-05-10T14:29:53;12.05;;;10.85;;
10452;SDS011;5274;51.992;8.518;2023-05-10T14:32:19;12.20;;;10.98;;
10452;SDS011;5274;51.992;8.518;2023-05-10T14:34:45;14.52;;;13.02;;
10452;SDS011;5274;51.992;8.518;2023-05-10T14:37:13;13.57;;;12.18;;
10452;SDS011;5274;51.992;8.518;2023-05-10T14:39:40;12.25;;;11.00;;
10452;SDS011;5274;51.992;8.518;2023-05-10T14:42:07;18.77;;;13.65;;
10452;SDS011;5274;51.992;8.518;2023-05-10T14:44:33;16.52;;;14.63;;
10452;SDS011;5274;51.992;8.518;2023-05-10T14:46:59;15.85;;;14.25;;
10452;SDS011;5274;51.992;8.518;2023-05-10T14:49:25;16.40;;;14.65;;
10452;SDS011;5274;51.992;8.518;2023-05-10T14:51:51;16.80;;;15.20;;
10452;SDS011;5274;51.992;8.518;2023-05-10T14:54:17;19.67;;;15.85;;
10452;SDS011;5274;51.992;8.518;2023-05-10T14:56:43;18.75;;;16.77;;
10452;SDS011;5274;51.992;8.518;2023-05-10T14:59:10;22.70;;;17.98;;
10452;SDS011;5274;51.992;8.518;2023-05-10T15:01:36;22.38;;;16.98;;
10452;SDS011;5274;51.992;8.518;2023-05-10T15:04:03;24.08;;;18.08;;
10452;SDS011;5274;51.992;8.518;2023-05-10T15:06:32;24.48;;;17.10;;
10452;SDS011;5274;51.992;8.518;2023-05-10T15:08:59;23.25;;;16.83;;
10452;SDS011;5274;51.992;8.518;2023-05-10T15:11:25;19.48;;;15.88;;
10452;SDS011;5274;51.992;8.518;2023-05-10T15:13:51;17.95;;;16.15;;
10452;SDS011;5274;51.992;8.518;2023-05-10T15:16:17;17.65;;;15.88;;